Bavly, Russia
Current Conditions -  °F | °C
As of 12:30 PM on Monday 20 Oct 2014 (Local Time) from UWKE Reporting Station
Overcast Overcast  
Wind Chill:   Ceiling: 2000
Heat Index: 21°   Visibility: 6mi
Dew Point: 16°   Wind: 13mph
Humidity: 80%   Direction: 260°W
Pressure: 29.8"   Gusts: NA
Location:  54.38°N, 53.28°E
Report Text: UWKE 200930Z 26006MPS 9999 OVC020CB M06/M09 Q1009 NOSIG RMKQFE740/0986 03090070
Loading
Personal Weather Stations






























Interactive Weather Map
Tropical Storm Tracking
New forecast layout! Learn more

10-Day Weather Forecast

Advertisements
Track Severe Weather on mobile